sensor_id;sensor_type;location;lat;lon;timestamp;temperature;humidity
18717;DHT22;9487;50.892;6.906;2023-07-09T00:01:12;24.10;99.90
18717;DHT22;9487;50.892;6.906;2023-07-09T00:03:39;24.00;99.90
18717;DHT22;9487;50.892;6.906;2023-07-09T00:06:08;24.00;99.90
18717;DHT22;9487;50.892;6.906;2023-07-09T00:08:36;24.00;99.90
18717;DHT22;9487;50.892;6.906;2023-07-09T00:11:05;24.00;99.90
18717;DHT22;9487;50.892;6.906;2023-07-09T00:13:35;24.00;99.90
18717;DHT22;9487;50.892;6.906;2023-07-09T00:16:10;24.00;99.90
18717;DHT22;9487;50.892;6.906;2023-07-09T00:18:40;24.00;99.90
18717;DHT22;9487;50.892;6.906;2023-07-09T00:21:07;24.00;99.90
18717;DHT22;9487;50.892;6.906;2023-07-09T00:23:35;23.90;99.90
18717;DHT22;9487;50.892;6.906;2023-07-09T00:26:07;23.90;99.90
18717;DHT22;9487;50.892;6.906;2023-07-09T00:28:35;23.90;99.90
18717;DHT22;9487;50.892;6.906;2023-07-09T00:31:03;23.90;99.90
18717;DHT22;9487;50.892;6.906;2023-07-09T00:33:30;23.90;99.90
18717;DHT22;9487;50.892;6.906;2023-07-09T00:35:59;23.80;99.90
18717;DHT22;9487;50.892;6.906;2023-07-09T00:38:26;23.90;99.90
18717;DHT22;9487;50.892;6.906;2023-07-09T00:41:03;23.80;99.90
18717;DHT22;9487;50.892;6.906;2023-07-09T00:43:33;23.80;99.90
18717;DHT22;9487;50.892;6.906;2023-07-09T00:46:15;23.80;99.90
18717;DHT22;9487;50.892;6.906;2023-07-09T00:48:43;23.80;99.90
18717;DHT22;9487;50.892;6.906;2023-07-09T00:51:16;23.70;99.90
18717;DHT22;9487;50.892;6.906;2023-07-09T00:53:46;23.70;99.90
18717;DHT22;9487;50.892;6.906;2023-07-09T00:56:17;23.70;99.90
18717;DHT22;9487;50.892;6.906;2023-07-09T00:58:47;23.70;99.90
18717;DHT22;9487;50.892;6.906;2023-07-09T01:01:18;23.60;99.90
18717;DHT22;9487;50.892;6.906;2023-07-09T01:03:47;23.60;99.90
18717;DHT22;9487;50.892;6.906;2023-07-09T01:06:23;23.60;99.90
18717;DHT22;9487;50.892;6.906;2023-07-09T01:08:55;23.60;99.90
18717;DHT22;9487;50.892;6.906;2023-07-09T01:11:23;23.60;99.90
18717;DHT22;9487;50.892;6.906;2023-07-09T01:13:52;23.50;99.90
18717;DHT22;9487;50.892;6.906;2023-07-09T01:16:22;23.60;99.90
18717;DHT22;9487;50.892;6.906;2023-07-09T01:18:50;23.50;99.90
18717;DHT22;9487;50.892;6.906;2023-07-09T01:21:19;23.50;99.90
18717;DHT22;9487;50.892;6.906;2023-07-09T01:23:48;23.50;99.90
18717;DHT22;9487;50.892;6.906;2023-07-09T01:26:18;23.40;99.90
18717;DHT22;9487;50.892;6.906;2023-07-09T01:28:46;23.40;99.90
18717;DHT22;9487;50.892;6.906;2023-07-09T01:31:14;23.40;99.90
18717;DHT22;9487;50.892;6.906;2023-07-09T01:33:42;23.40;99.90
18717;DHT22;9487;50.892;6.906;2023-07-09T01:36:10;23.40;99.90
18717;DHT22;9487;50.892;6.906;2023-07-09T01:38:40;23.40;99.90
18717;DHT22;9487;50.892;6.906;2023-07-09T01:41:07;23.40;99.90
18717;DHT22;9487;50.892;6.906;2023-07-09T01:43:39;23.30;99.90
18717;DHT22;9487;50.892;6.906;2023-07-09T01:46:07;23.30;99.90
18717;DHT22;9487;50.892;6.906;2023-07-09T01:48:34;23.20;99.90
18717;DHT22;9487;50.892;6.906;2023-07-09T01:51:06;23.30;99.90
18717;DHT22;9487;50.892;6.906;2023-07-09T01:53:34;23.20;99.90
18717;DHT22;9487;50.892;6.906;2023-07-09T01:56:03;23.20;99.90
18717;DHT22;9487;50.892;6.906;2023-07-09T01:58:33;23.20;99.90
18717;DHT22;9487;50.892;6.906;2023-07-09T02:01:00;23.20;99.90
18717;DHT22;9487;50.892;6.906;2023-07-09T02:03:27;23.20;99.90
18717;DHT22;9487;50.892;6.906;2023-07-09T02:05:55;23.10;99.90
18717;DHT22;9487;50.892;6.906;2023-07-09T02:08:23;23.10;99.90
18717;DHT22;9487;50.892;6.906;2023-07-09T02:10:50;23.10;99.90
18717;DHT22;9487;50.892;6.906;2023-07-09T02:13:19;23.10;99.90
18717;DHT22;9487;50.892;6.906;2023-07-09T02:15:45;23.00;99.90
18717;DHT22;9487;50.892;6.906;2023-07-09T02:18:13;23.00;99.90
18717;DHT22;9487;50.892;6.906;2023-07-09T02:20:40;23.00;99.90
18717;DHT22;9487;50.892;6.906;2023-07-09T02:23:07;23.00;99.90
18717;DHT22;9487;50.892;6.906;2023-07-09T02:25:34;23.00;99.90
18717;DHT22;9487;50.892;6.906;2023-07-09T02:28:01;23.00;99.90
18717;DHT22;9487;50.892;6.906;2023-07-09T02:30:30;23.00;99.90
18717;DHT22;9487;50.892;6.906;2023-07-09T02:32:57;23.00;99.90
18717;DHT22;9487;50.892;6.906;2023-07-09T02:35:24;23.00;99.90
18717;DHT22;9487;50.892;6.906;2023-07-09T02:37:51;22.90;99.90
18717;DHT22;9487;50.892;6.906;2023-07-09T02:40:18;22.90;99.90
18717;DHT22;9487;50.892;6.906;2023-07-09T02:42:46;22.90;99.90
18717;DHT22;9487;50.892;6.906;2023-07-09T02:45:13;22.80;99.90
18717;DHT22;9487;50.892;6.906;2023-07-09T02:47:41;22.80;99.90
18717;DHT22;9487;50.892;6.906;2023-07-09T02:50:09;22.80;99.90
18717;DHT22;9487;50.892;6.906;2023-07-09T02:52:36;22.80;99.90
18717;DHT22;9487;50.892;6.906;2023-07-09T02:55:03;22.80;99.90
18717;DHT22;9487;50.892;6.906;2023-07-09T02:57:31;22.80;99.90
18717;DHT22;9487;50.892;6.906;2023-07-09T02:59:57;22.80;99.90
18717;DHT22;9487;50.892;6.906;2023-07-09T03:02:24;22.80;99.90
18717;DHT22;9487;50.892;6.906;2023-07-09T03:04:53;22.80;99.90
18717;DHT22;9487;50.892;6.906;2023-07-09T03:07:20;22.70;99.90
18717;DHT22;9487;50.892;6.906;2023-07-09T03:09:47;22.80;99.90
18717;DHT22;9487;50.892;6.906;2023-07-09T03:12:14;22.70;99.90
18717;DHT22;9487;50.892;6.906;2023-07-09T03:14:41;22.70;99.90
18717;DHT22;9487;50.892;6.906;2023-07-09T03:17:08;22.70;99.90
18717;DHT22;9487;50.892;6.906;2023-07-09T03:19:35;22.70;99.90
18717;DHT22;9487;50.892;6.906;2023-07-09T03:22:04;22.70;99.90
18717;DHT22;9487;50.892;6.906;2023-07-09T03:24:33;22.70;99.90
18717;DHT22;9487;50.892;6.906;2023-07-09T03:27:00;22.70;99.90
18717;DHT22;9487;50.892;6.906;2023-07-09T03:29:27;22.70;99.90
18717;DHT22;9487;50.892;6.906;2023-07-09T03:31:54;22.70;99.90
18717;DHT22;9487;50.892;6.906;2023-07-09T03:34:22;22.70;99.90
18717;DHT22;9487;50.892;6.906;2023-07-09T03:36:49;22.70;99.90
18717;DHT22;9487;50.892;6.906;2023-07-09T03:39:19;22.70;99.90
18717;DHT22;9487;50.892;6.906;2023-07-09T03:41:46;22.60;99.90
18717;DHT22;9487;50.892;6.906;2023-07-09T03:44:12;22.60;99.90
18717;DHT22;9487;50.892;6.906;2023-07-09T03:46:39;22.70;99.90
18717;DHT22;9487;50.892;6.906;2023-07-09T03:49:06;22.60;99.90
18717;DHT22;9487;50.892;6.906;2023-07-09T03:51:34;22.60;99.90
18717;DHT22;9487;50.892;6.906;2023-07-09T03:54:01;22.60;99.90
18717;DHT22;9487;50.892;6.906;2023-07-09T03:56:29;22.60;99.90
18717;DHT22;9487;50.892;6.906;2023-07-09T03:58:56;22.60;99.90
18717;DHT22;9487;50.892;6.906;2023-07-09T04:01:23;22.60;99.90
18717;DHT22;9487;50.892;6.906;2023-07-09T04:03:50;22.60;99.90
18717;DHT22;9487;50.892;6.906;2023-07-09T04:06:17;22.60;99.90
18717;DHT22;9487;50.892;6.906;2023-07-09T04:08:44;22.60;99.90
18717;DHT22;9487;50.892;6.906;2023-07-09T04:11:11;22.60;99.90
18717;DHT22;9487;50.892;6.906;2023-07-09T04:13:40;22.60;99.90
18717;DHT22;9487;50.892;6.906;2023-07-09T04:16:07;22.60;99.90
18717;DHT22;9487;50.892;6.906;2023-07-09T04:18:34;22.70;99.90
18717;DHT22;9487;50.892;6.906;2023-07-09T04:21:02;22.70;99.90
18717;DHT22;9487;50.892;6.906;2023-07-09T04:23:29;22.70;99.90
18717;DHT22;9487;50.892;6.906;2023-07-09T04:25:56;22.80;99.90
18717;DHT22;9487;50.892;6.906;2023-07-09T04:28:23;22.80;99.90
18717;DHT22;9487;50.892;6.906;2023-07-09T04:30:52;22.80;99.90
18717;DHT22;9487;50.892;6.906;2023-07-09T04:33:20;22.80;99.90
18717;DHT22;9487;50.892;6.906;2023-07-09T04:35:47;22.80;99.90
18717;DHT22;9487;50.892;6.906;2023-07-09T04:38:15;22.80;99.90
18717;DHT22;9487;50.892;6.906;2023-07-09T04:40:42;22.70;99.90
18717;DHT22;9487;50.892;6.906;2023-07-09T04:43:12;22.80;99.90
18717;DHT22;9487;50.892;6.906;2023-07-09T04:45:38;22.80;99.90
18717;DHT22;9487;50.892;6.906;2023-07-09T04:48:07;22.90;99.90
18717;DHT22;9487;50.892;6.906;2023-07-09T04:50:34;23.00;99.90
18717;DHT22;9487;50.892;6.906;2023-07-09T04:53:02;23.00;99.90
18717;DHT22;9487;50.892;6.906;2023-07-09T04:55:29;23.00;99.90
18717;DHT22;9487;50.892;6.906;2023-07-09T04:57:56;23.00;99.90
18717;DHT22;9487;50.892;6.906;2023-07-09T05:00:23;23.00;99.90
18717;DHT22;9487;50.892;6.906;2023-07-09T05:02:50;23.10;99.90
18717;DHT22;9487;50.892;6.906;2023-07-09T05:05:18;23.20;99.90
18717;DHT22;9487;50.892;6.906;2023-07-09T05:07:45;23.20;99.90
18717;DHT22;9487;50.892;6.906;2023-07-09T05:10:12;23.30;99.90
18717;DHT22;9487;50.892;6.906;2023-07-09T05:12:48;23.40;99.90
18717;DHT22;9487;50.892;6.906;2023-07-09T05:15:16;23.40;99.90
18717;DHT22;9487;50.892;6.906;2023-07-09T05:17:44;23.40;99.90
18717;DHT22;9487;50.892;6.906;2023-07-09T05:20:11;23.60;99.90
18717;DHT22;9487;50.892;6.906;2023-07-09T05:22:40;23.70;99.90
18717;DHT22;9487;50.892;6.906;2023-07-09T05:25:08;23.80;99.90
18717;DHT22;9487;50.892;6.906;2023-07-09T05:27:35;23.90;99.90
18717;DHT22;9487;50.892;6.906;2023-07-09T05:30:04;24.00;99.90
18717;DHT22;9487;50.892;6.906;2023-07-09T05:32:31;24.10;99.90
18717;DHT22;9487;50.892;6.906;2023-07-09T05:34:59;24.30;99.90
18717;DHT22;9487;50.892;6.906;2023-07-09T05:37:27;24.40;99.90
18717;DHT22;9487;50.892;6.906;2023-07-09T05:39:55;24.50;99.90
18717;DHT22;9487;50.892;6.906;2023-07-09T05:42:22;24.50;99.90
18717;DHT22;9487;50.892;6.906;2023-07-09T05:44:49;24.60;99.90
18717;DHT22;9487;50.892;6.906;2023-07-09T05:47:16;24.70;99.90
18717;DHT22;9487;50.892;6.906;2023-07-09T05:49:43;24.80;99.90
18717;DHT22;9487;50.892;6.906;2023-07-09T05:52:14;24.80;99.90
18717;DHT22;9487;50.892;6.906;2023-07-09T05:54:41;24.90;99.90
18717;DHT22;9487;50.892;6.906;2023-07-09T05:57:12;25.00;99.90
18717;DHT22;9487;50.892;6.906;2023-07-09T05:59:39;25.10;99.90
18717;DHT22;9487;50.892;6.906;2023-07-09T06:02:10;25.10;99.90
18717;DHT22;9487;50.892;6.906;2023-07-09T06:04:38;25.20;99.90
18717;DHT22;9487;50.892;6.906;2023-07-09T06:07:05;25.20;99.90
18717;DHT22;9487;50.892;6.906;2023-07-09T06:09:35;25.20;99.90
18717;DHT22;9487;50.892;6.906;2023-07-09T06:12:02;25.20;99.90
18717;DHT22;9487;50.892;6.906;2023-07-09T06:14:31;25.30;99.90
18717;DHT22;9487;50.892;6.906;2023-07-09T06:16:59;25.50;99.90
18717;DHT22;9487;50.892;6.906;2023-07-09T06:19:26;25.50;99.90
18717;DHT22;9487;50.892;6.906;2023-07-09T06:21:53;25.70;99.90
18717;DHT22;9487;50.892;6.906;2023-07-09T06:24:21;25.80;99.90
18717;DHT22;9487;50.892;6.906;2023-07-09T06:26:51;25.80;99.90
18717;DHT22;9487;50.892;6.906;2023-07-09T06:29:18;25.80;99.90
18717;DHT22;9487;50.892;6.906;2023-07-09T06:31:46;25.90;99.90
18717;DHT22;9487;50.892;6.906;2023-07-09T06:34:13;26.00;99.90
18717;DHT22;9487;50.892;6.906;2023-07-09T06:36:40;26.00;99.90
18717;DHT22;9487;50.892;6.906;2023-07-09T06:39:08;26.00;99.90
18717;DHT22;9487;50.892;6.906;2023-07-09T06:41:35;26.20;99.90
18717;DHT22;9487;50.892;6.906;2023-07-09T06:44:06;26.30;99.90
18717;DHT22;9487;50.892;6.906;2023-07-09T06:46:33;26.40;99.90
18717;DHT22;9487;50.892;6.906;2023-07-09T06:49:03;26.40;99.90
18717;DHT22;9487;50.892;6.906;2023-07-09T06:51:31;26.40;99.90
18717;DHT22;9487;50.892;6.906;2023-07-09T06:53:58;26.20;99.90
18717;DHT22;9487;50.892;6.906;2023-07-09T06:56:25;26.10;99.90
18717;DHT22;9487;50.892;6.906;2023-07-09T06:58:52;26.30;99.90
18717;DHT22;9487;50.892;6.906;2023-07-09T07:01:19;26.40;99.90
18717;DHT22;9487;50.892;6.906;2023-07-09T07:03:46;26.50;99.90
18717;DHT22;9487;50.892;6.906;2023-07-09T07:06:14;26.60;99.90
18717;DHT22;9487;50.892;6.906;2023-07-09T07:08:42;26.70;99.90
18717;DHT22;9487;50.892;6.906;2023-07-09T07:11:09;26.80;99.90
18717;DHT22;9487;50.892;6.906;2023-07-09T07:13:38;26.70;99.90
18717;DHT22;9487;50.892;6.906;2023-07-09T07:16:07;26.90;99.90
18717;DHT22;9487;50.892;6.906;2023-07-09T07:18:34;27.00;99.90
18717;DHT22;9487;50.892;6.906;2023-07-09T07:21:02;27.20;99.90
18717;DHT22;9487;50.892;6.906;2023-07-09T07:23:31;27.20;99.90
18717;DHT22;9487;50.892;6.906;2023-07-09T07:26:00;27.20;99.90
18717;DHT22;9487;50.892;6.906;2023-07-09T07:28:27;27.40;99.90
18717;DHT22;9487;50.892;6.906;2023-07-09T07:30:58;27.50;99.90
18717;DHT22;9487;50.892;6.906;2023-07-09T07:33:25;27.40;99.90
18717;DHT22;9487;50.892;6.906;2023-07-09T07:35:52;27.50;99.90
18717;DHT22;9487;50.892;6.906;2023-07-09T07:38:22;27.40;99.90
18717;DHT22;9487;50.892;6.906;2023-07-09T07:40:50;27.50;99.90
18717;DHT22;9487;50.892;6.906;2023-07-09T07:43:17;27.60;99.90
18717;DHT22;9487;50.892;6.906;2023-07-09T07:45:44;27.70;99.90
18717;DHT22;9487;50.892;6.906;2023-07-09T07:48:12;27.70;99.90
18717;DHT22;9487;50.892;6.906;2023-07-09T07:50:39;27.80;99.90
18717;DHT22;9487;50.892;6.906;2023-07-09T07:53:07;27.90;99.90
18717;DHT22;9487;50.892;6.906;2023-07-09T07:55:34;28.10;99.90
18717;DHT22;9487;50.892;6.906;2023-07-09T07:58:04;28.10;99.90
18717;DHT22;9487;50.892;6.906;2023-07-09T08:00:31;28.30;99.90
18717;DHT22;9487;50.892;6.906;2023-07-09T08:02:58;28.30;99.90
18717;DHT22;9487;50.892;6.906;2023-07-09T08:05:25;28.40;99.90
18717;DHT22;9487;50.892;6.906;2023-07-09T08:07:53;28.60;99.90
18717;DHT22;9487;50.892;6.906;2023-07-09T08:10:19;28.70;99.90
18717;DHT22;9487;50.892;6.906;2023-07-09T08:12:47;28.80;99.90
18717;DHT22;9487;50.892;6.906;2023-07-09T08:15:15;28.90;99.90
18717;DHT22;9487;50.892;6.906;2023-07-09T08:17:44;29.10;99.90
18717;DHT22;9487;50.892;6.906;2023-07-09T08:20:11;29.30;99.90
18717;DHT22;9487;50.892;6.906;2023-07-09T08:22:38;29.20;99.90
18717;DHT22;9487;50.892;6.906;2023-07-09T08:25:06;29.20;99.90
18717;DHT22;9487;50.892;6.906;2023-07-09T08:27:34;29.50;99.90
18717;DHT22;9487;50.892;6.906;2023-07-09T08:30:01;29.70;99.90
18717;DHT22;9487;50.892;6.906;2023-07-09T08:32:30;29.40;99.90
18717;DHT22;9487;50.892;6.906;2023-07-09T08:34:57;29.30;99.90
18717;DHT22;9487;50.892;6.906;2023-07-09T08:37:24;29.40;99.90
18717;DHT22;9487;50.892;6.906;2023-07-09T08:39:51;29.40;99.90
18717;DHT22;9487;50.892;6.906;2023-07-09T08:42:26;29.60;99.90
18717;DHT22;9487;50.892;6.906;2023-07-09T08:45:09;29.70;99.90
18717;DHT22;9487;50.892;6.906;2023-07-09T08:47:45;29.70;99.90
18717;DHT22;9487;50.892;6.906;2023-07-09T08:50:16;29.80;99.90
18717;DHT22;9487;50.892;6.906;2023-07-09T08:52:47;29.90;99.90
18717;DHT22;9487;50.892;6.906;2023-07-09T08:55:18;30.10;99.90
18717;DHT22;9487;50.892;6.906;2023-07-09T08:57:49;30.40;99.90
18717;DHT22;9487;50.892;6.906;2023-07-09T09:00:19;30.50;99.90
18717;DHT22;9487;50.892;6.906;2023-07-09T09:02:52;30.70;99.90
18717;DHT22;9487;50.892;6.906;2023-07-09T09:05:20;30.80;99.90
18717;DHT22;9487;50.892;6.906;2023-07-09T09:07:51;31.00;99.30
18717;DHT22;9487;50.892;6.906;2023-07-09T09:10:26;30.90;98.50
18717;DHT22;9487;50.892;6.906;2023-07-09T09:13:07;30.80;98.80
18717;DHT22;9487;50.892;6.906;2023-07-09T09:15:40;30.90;98.00
18717;DHT22;9487;50.892;6.906;2023-07-09T09:18:29;31.10;97.50
18717;DHT22;9487;50.892;6.906;2023-07-09T09:21:03;31.30;97.30
18717;DHT22;9487;50.892;6.906;2023-07-09T09:23:39;31.40;97.00
18717;DHT22;9487;50.892;6.906;2023-07-09T09:26:15;31.30;97.00
18717;DHT22;9487;50.892;6.906;2023-07-09T09:28:44;31.50;96.70
18717;DHT22;9487;50.892;6.906;2023-07-09T09:31:11;31.50;96.30
18717;DHT22;9487;50.892;6.906;2023-07-09T09:33:52;31.60;95.40
18717;DHT22;9487;50.892;6.906;2023-07-09T09:36:22;31.60;95.60
18717;DHT22;9487;50.892;6.906;2023-07-09T09:38:49;31.80;95.60
18717;DHT22;9487;50.892;6.906;2023-07-09T09:41:19;31.80;94.90
18717;DHT22;9487;50.892;6.906;2023-07-09T09:43:47;31.70;94.90
18717;DHT22;9487;50.892;6.906;2023-07-09T09:46:18;31.80;95.30
18717;DHT22;9487;50.892;6.906;2023-07-09T09:48:48;31.90;94.80
18717;DHT22;9487;50.892;6.906;2023-07-09T09:51:16;32.10;94.40
18717;DHT22;9487;50.892;6.906;2023-07-09T09:53:49;32.30;93.90
18717;DHT22;9487;50.892;6.906;2023-07-09T09:58:52;32.60;92.40
18717;DHT22;9487;50.892;6.906;2023-07-09T10:01:25;32.50;92.40
18717;DHT22;9487;50.892;6.906;2023-07-09T10:03:55;32.50;92.10
18717;DHT22;9487;50.892;6.906;2023-07-09T10:06:29;32.70;92.20
18717;DHT22;9487;50.892;6.906;2023-07-09T10:09:05;32.80;91.70
18717;DHT22;9487;50.892;6.906;2023-07-09T10:11:44;32.80;90.70
18717;DHT22;9487;50.892;6.906;2023-07-09T10:17:05;32.70;91.50
18717;DHT22;9487;50.892;6.906;2023-07-09T10:19:46;32.80;91.20
18717;DHT22;9487;50.892;6.906;2023-07-09T10:22:23;32.90;90.50
18717;DHT22;9487;50.892;6.906;2023-07-09T10:24:57;33.10;90.00
18717;DHT22;9487;50.892;6.906;2023-07-09T10:27:32;33.10;89.20
18717;DHT22;9487;50.892;6.906;2023-07-09T10:30:17;33.30;90.00
18717;DHT22;9487;50.892;6.906;2023-07-09T10:32:57;33.40;88.50
18717;DHT22;9487;50.892;6.906;2023-07-09T10:35:35;33.60;86.40
18717;DHT22;9487;50.892;6.906;2023-07-09T10:38:20;33.70;86.10
18717;DHT22;9487;50.892;6.906;2023-07-09T10:40:52;33.80;84.80
18717;DHT22;9487;50.892;6.906;2023-07-09T10:43:24;33.90;83.90
18717;DHT22;9487;50.892;6.906;2023-07-09T10:45:59;34.10;83.10
18717;DHT22;9487;50.892;6.906;2023-07-09T10:48:33;34.20;82.20
18717;DHT22;9487;50.892;6.906;2023-07-09T10:51:02;34.20;82.40
18717;DHT22;9487;50.892;6.906;2023-07-09T10:53:33;34.20;82.30
18717;DHT22;9487;50.892;6.906;2023-07-09T10:56:07;34.30;82.30
18717;DHT22;9487;50.892;6.906;2023-07-09T10:58:43;34.40;80.30
18717;DHT22;9487;50.892;6.906;2023-07-09T11:01:13;34.10;80.20
18717;DHT22;9487;50.892;6.906;2023-07-09T11:03:48;34.00;79.80
18717;DHT22;9487;50.892;6.906;2023-07-09T11:06:20;34.10;77.90
18717;DHT22;9487;50.892;6.906;2023-07-09T11:08:50;34.30;75.80
18717;DHT22;9487;50.892;6.906;2023-07-09T11:11:28;34.50;74.60
18717;DHT22;9487;50.892;6.906;2023-07-09T11:14:01;34.80;72.30
18717;DHT22;9487;50.892;6.906;2023-07-09T11:16:32;34.90;69.40
18717;DHT22;9487;50.892;6.906;2023-07-09T11:19:05;35.00;68.20
18717;DHT22;9487;50.892;6.906;2023-07-09T11:21:44;35.10;67.40
18717;DHT22;9487;50.892;6.906;2023-07-09T11:24:30;35.20;67.30
18717;DHT22;9487;50.892;6.906;2023-07-09T11:26:57;35.20;66.60
18717;DHT22;9487;50.892;6.906;2023-07-09T11:29:25;35.20;58.80
18717;DHT22;9487;50.892;6.906;2023-07-09T11:31:52;35.20;56.70
18717;DHT22;9487;50.892;6.906;2023-07-09T11:34:20;35.20;55.60
18717;DHT22;9487;50.892;6.906;2023-07-09T11:36:50;35.30;54.80
18717;DHT22;9487;50.892;6.906;2023-07-09T11:39:20;35.40;55.30
18717;DHT22;9487;50.892;6.906;2023-07-09T11:41:47;35.50;54.50
18717;DHT22;9487;50.892;6.906;2023-07-09T11:44:17;35.70;53.90
18717;DHT22;9487;50.892;6.906;2023-07-09T11:47:13;35.70;52.60
18717;DHT22;9487;50.892;6.906;2023-07-09T11:49:49;35.70;52.30
18717;DHT22;9487;50.892;6.906;2023-07-09T11:52:25;35.70;51.50
18717;DHT22;9487;50.892;6.906;2023-07-09T11:54:52;35.70;51.90
18717;DHT22;9487;50.892;6.906;2023-07-09T11:57:20;35.70;51.10
18717;DHT22;9487;50.892;6.906;2023-07-09T11:59:47;35.90;49.10
18717;DHT22;9487;50.892;6.906;2023-07-09T12:02:18;36.00;48.70
18717;DHT22;9487;50.892;6.906;2023-07-09T12:04:48;36.00;49.30
18717;DHT22;9487;50.892;6.906;2023-07-09T12:07:20;35.90;49.70
18717;DHT22;9487;50.892;6.906;2023-07-09T12:09:49;35.70;49.30
18717;DHT22;9487;50.892;6.906;2023-07-09T12:12:19;35.60;49.90
18717;DHT22;9487;50.892;6.906;2023-07-09T12:14:46;35.50;49.50
18717;DHT22;9487;50.892;6.906;2023-07-09T12:17:13;35.40;49.60
18717;DHT22;9487;50.892;6.906;2023-07-09T12:19:41;35.20;49.40
18717;DHT22;9487;50.892;6.906;2023-07-09T12:22:20;35.20;49.80
18717;DHT22;9487;50.892;6.906;2023-07-09T12:24:49;35.10;49.30
18717;DHT22;9487;50.892;6.906;2023-07-09T12:27:19;34.90;49.80
18717;DHT22;9487;50.892;6.906;2023-07-09T12:29:46;35.00;49.70
18717;DHT22;9487;50.892;6.906;2023-07-09T12:32:15;34.90;50.60
18717;DHT22;9487;50.892;6.906;2023-07-09T12:34:42;34.90;51.10
18717;DHT22;9487;50.892;6.906;2023-07-09T12:37:14;34.90;50.90
18717;DHT22;9487;50.892;6.906;2023-07-09T12:39:43;35.00;51.70
18717;DHT22;9487;50.892;6.906;2023-07-09T12:42:17;35.10;51.90
18717;DHT22;9487;50.892;6.906;2023-07-09T12:44:45;35.20;51.60
18717;DHT22;9487;50.892;6.906;2023-07-09T12:47:15;35.30;52.50
18717;DHT22;9487;50.892;6.906;2023-07-09T12:49:44;35.30;52.00
18717;DHT22;9487;50.892;6.906;2023-07-09T12:52:15;35.40;51.60
18717;DHT22;9487;50.892;6.906;2023-07-09T12:54:56;35.50;51.30
18717;DHT22;9487;50.892;6.906;2023-07-09T12:57:23;35.50;51.00
18717;DHT22;9487;50.892;6.906;2023-07-09T12:59:51;35.50;50.80
18717;DHT22;9487;50.892;6.906;2023-07-09T13:02:21;35.40;50.80
18717;DHT22;9487;50.892;6.906;2023-07-09T13:04:49;35.40;50.80
18717;DHT22;9487;50.892;6.906;2023-07-09T13:07:30;35.40;51.10
18717;DHT22;9487;50.892;6.906;2023-07-09T13:10:05;35.40;51.00
18717;DHT22;9487;50.892;6.906;2023-07-09T13:12:33;35.20;50.60
18717;DHT22;9487;50.892;6.906;2023-07-09T13:15:00;35.10;50.40
18717;DHT22;9487;50.892;6.906;2023-07-09T13:17:30;35.00;50.50
18717;DHT22;9487;50.892;6.906;2023-07-09T13:19:57;34.90;50.50
18717;DHT22;9487;50.892;6.906;2023-07-09T13:22:25;34.80;51.00
18717;DHT22;9487;50.892;6.906;2023-07-09T13:24:52;34.70;51.10
18717;DHT22;9487;50.892;6.906;2023-07-09T13:27:20;34.70;52.40
18717;DHT22;9487;50.892;6.906;2023-07-09T13:29:47;34.60;51.90
18717;DHT22;9487;50.892;6.906;2023-07-09T13:32:15;34.60;51.70
18717;DHT22;9487;50.892;6.906;2023-07-09T13:34:43;34.50;51.10
18717;DHT22;9487;50.892;6.906;2023-07-09T13:37:12;34.30;51.90
18717;DHT22;9487;50.892;6.906;2023-07-09T13:39:40;34.30;51.70
18717;DHT22;9487;50.892;6.906;2023-07-09T13:42:11;34.10;51.70
18717;DHT22;9487;50.892;6.906;2023-07-09T13:44:41;34.00;51.70
18717;DHT22;9487;50.892;6.906;2023-07-09T13:47:12;33.90;51.80
18717;DHT22;9487;50.892;6.906;2023-07-09T13:49:40;33.90;52.50
18717;DHT22;9487;50.892;6.906;2023-07-09T13:52:13;33.90;52.50
18717;DHT22;9487;50.892;6.906;2023-07-09T13:54:41;34.00;51.60
18717;DHT22;9487;50.892;6.906;2023-07-09T13:57:13;34.10;50.70
18717;DHT22;9487;50.892;6.906;2023-07-09T13:59:42;34.20;48.80
18717;DHT22;9487;50.892;6.906;2023-07-09T14:02:19;34.30;48.70
18717;DHT22;9487;50.892;6.906;2023-07-09T14:04:46;34.40;49.00
18717;DHT22;9487;50.892;6.906;2023-07-09T14:07:24;34.40;49.70
18717;DHT22;9487;50.892;6.906;2023-07-09T14:09:52;34.40;50.00
18717;DHT22;9487;50.892;6.906;2023-07-09T14:12:19;33.70;55.10
18717;DHT22;9487;50.892;6.906;2023-07-09T14:14:49;33.30;57.70
18717;DHT22;9487;50.892;6.906;2023-07-09T14:17:17;32.90;59.30
18717;DHT22;9487;50.892;6.906;2023-07-09T14:19:44;32.60;61.00
18717;DHT22;9487;50.892;6.906;2023-07-09T14:22:26;32.30;62.60
18717;DHT22;9487;50.892;6.906;2023-07-09T14:24:54;31.90;64.40
18717;DHT22;9487;50.892;6.906;2023-07-09T14:27:21;31.50;65.90
18717;DHT22;9487;50.892;6.906;2023-07-09T14:29:49;31.30;68.10
18717;DHT22;9487;50.892;6.906;2023-07-09T14:32:37;31.00;69.50
18717;DHT22;9487;50.892;6.906;2023-07-09T14:35:11;30.60;71.80
18717;DHT22;9487;50.892;6.906;2023-07-09T14:37:39;30.10;77.80
18717;DHT22;9487;50.892;6.906;2023-07-09T14:40:07;29.60;86.90
18717;DHT22;9487;50.892;6.906;2023-07-09T14:42:35;28.90;97.80
18717;DHT22;9487;50.892;6.906;2023-07-09T14:45:05;28.00;99.90
18717;DHT22;9487;50.892;6.906;2023-07-09T14:47:32;27.30;99.90
18717;DHT22;9487;50.892;6.906;2023-07-09T14:49:59;26.50;99.90
18717;DHT22;9487;50.892;6.906;2023-07-09T14:52:26;26.00;99.90
18717;DHT22;9487;50.892;6.906;2023-07-09T14:54:53;25.60;99.90
18717;DHT22;9487;50.892;6.906;2023-07-09T14:57:21;25.50;99.90
18717;DHT22;9487;50.892;6.906;2023-07-09T14:59:48;25.50;99.90
18717;DHT22;9487;50.892;6.906;2023-07-09T15:02:32;25.10;99.90
18717;DHT22;9487;50.892;6.906;2023-07-09T15:05:01;24.80;99.90
18717;DHT22;9487;50.892;6.906;2023-07-09T15:07:28;24.80;99.90
18717;DHT22;9487;50.892;6.906;2023-07-09T15:09:56;24.70;99.90
18717;DHT22;9487;50.892;6.906;2023-07-09T15:12:26;24.70;99.90
18717;DHT22;9487;50.892;6.906;2023-07-09T15:14:59;24.70;99.90
18717;DHT22;9487;50.892;6.906;2023-07-09T15:17:29;24.70;99.90
18717;DHT22;9487;50.892;6.906;2023-07-09T15:19:56;24.80;99.90
18717;DHT22;9487;50.892;6.906;2023-07-09T15:22:29;24.90;99.90
18717;DHT22;9487;50.892;6.906;2023-07-09T15:24:56;24.90;99.90
18717;DHT22;9487;50.892;6.906;2023-07-09T15:27:23;25.00;99.90
18717;DHT22;9487;50.892;6.906;2023-07-09T15:29:51;25.00;99.90
18717;DHT22;9487;50.892;6.906;2023-07-09T15:32:18;25.00;99.90
18717;DHT22;9487;50.892;6.906;2023-07-09T15:34:46;25.00;99.90
18717;DHT22;9487;50.892;6.906;2023-07-09T15:37:16;25.10;99.90
18717;DHT22;9487;50.892;6.906;2023-07-09T15:39:43;24.90;99.90
18717;DHT22;9487;50.892;6.906;2023-07-09T15:42:11;24.80;99.90
18717;DHT22;9487;50.892;6.906;2023-07-09T15:44:38;24.70;99.90
18717;DHT22;9487;50.892;6.906;2023-07-09T15:47:15;24.70;99.90
18717;DHT22;9487;50.892;6.906;2023-07-09T15:49:43;24.80;99.90
18717;DHT22;9487;50.892;6.906;2023-07-09T15:52:11;24.80;99.90
18717;DHT22;9487;50.892;6.906;2023-07-09T15:54:38;24.70;99.90
18717;DHT22;9487;50.892;6.906;2023-07-09T15:57:05;24.70;99.90
18717;DHT22;9487;50.892;6.906;2023-07-09T15:59:35;24.70;99.90
18717;DHT22;9487;50.892;6.906;2023-07-09T16:02:10;24.80;99.90
18717;DHT22;9487;50.892;6.906;2023-07-09T16:04:38;24.90;99.90